Point Vicente — WDB9763 — position and weather

sailwx.info

Track history (hours):
 
Tides and Currents Weather Stations Pressure Air Temp Water Temp Dewpoint Dewpoint Depression Visibility Wind Speed Wind Dir Waves Ship Positions

Point Vicente

Owner: Foss Maritime Company, Seattle, WA. More information available from US FCC via Universal Licensing System and Coast Guard Vessel Documentation Center.

Last reported at 2016-Jul-23 14:33 UTC. Time now 2016-Jul-23 15:02 UTC.
Position N 37°54' W 122°22'.

Length 32 m; draft 4.3 m.

Type: Tug. MMSI: 366982330.

Date/timePositionNaut miles runAvg speedWind from/ knotsBaromVisibWave heightAir tempDewpointWater temp
2016-Jul-23 14:33N 37°54' W 122°22'0 0.0
2016-Jul-23 13:33N 37°54' W 122°22'0 0.0
2016-Jul-23 12:33N 37°54' W 122°22'0 0.0
2016-Jul-23 11:33N 37°54' W 122°22'0 0.0
2016-Jul-23 10:33N 37°54' W 122°22'0 0.0
2016-Jul-23 09:33N 37°54' W 122°22'0 0.0
2016-Jul-23 08:33N 37°54' W 122°22'0 0.0
2016-Jul-23 07:33N 37°54' W 122°22'0 0.0
2016-Jul-23 06:33N 37°54' W 122°22'0 0.0
2016-Jul-23 04:33N 37°54' W 122°22'0 0.0
2016-Jul-23 03:33N 37°54' W 122°22'0 0.0
2016-Jul-23 02:33N 37°54' W 122°22'0 0.0
2016-Jul-23 01:33N 37°54' W 122°22'0 0.0
2016-Jul-23 00:33N 37°54' W 122°22'0 0.0
2016-Jul-22 23:33N 37°54' W 122°22'0 0.0
2016-Jul-22 22:33N 37°54' W 122°22'0 0.0
2016-Jul-22 21:33N 37°54' W 122°22'0 0.0
2016-Jul-22 20:33N 37°54' W 122°22'0 0.0
2016-Jul-22 19:33N 37°54' W 122°22'0 0.0
2016-Jul-22 18:33N 37°54' W 122°22'0 0.0
2016-Jul-22 17:33N 37°54' W 122°22'0 0.0
2016-Jul-22 16:33N 37°54' W 122°22'0 0.0
2016-Jul-22 15:33N 37°54' W 122°22'0 0.0
2016-Jul-22 14:33N 37°54' W 122°22'0 0.0
2016-Jul-22 13:33N 37°54' W 122°22'0 0.0
2016-Jul-22 12:33N 37°54' W 122°22'0 0.0
2016-Jul-22 11:33N 37°54' W 122°22'0 0.0
2016-Jul-22 10:33N 37°54' W 122°22'0 0.0
2016-Jul-22 09:33N 37°54' W 122°22'0 0.0
2016-Jul-22 08:33N 37°54' W 122°22'0 0.0
2016-Jul-22 07:33N 37°54' W 122°22'0 0.0
2016-Jul-22 05:34N 37°54' W 122°22'0 0.0
2016-Jul-22 04:33N 37°54' W 122°22'0 0.0
2016-Jul-22 03:33N 37°54' W 122°22'0 0.0
2016-Jul-22 02:33N 37°54' W 122°22'0 0.0
2016-Jul-22 01:33N 37°54' W 122°22'0 0.0
2016-Jul-22 00:33N 37°54' W 122°22'0 0.0
2016-Jul-21 23:33N 37°54' W 122°22'0 0.0
2016-Jul-21 22:33N 37°54' W 122°22'0 0.0
2016-Jul-21 21:33N 37°54' W 122°22'0 0.0
2016-Jul-21 20:33N 37°54' W 122°22'2 1.6
2016-Jul-21 19:33N 37°54' W 122°24'7 6.9
2016-Jul-21 18:33N 37°48' W 122°19'0 0.4
2016-Jul-21 17:33N 37°48' W 122°19'0 0.0
2016-Jul-21 16:33N 37°48' W 122°19'0 0.0
2016-Jul-21 15:33N 37°48' W 122°19'0 0.0
2016-Jul-21 14:34N 37°48' W 122°19'0 0.0
2016-Jul-21 13:33N 37°48' W 122°19'0 0.0
2016-Jul-21 12:33N 37°48' W 122°19'0 0.0
2016-Jul-21 11:34N 37°48' W 122°19'0 0.0
2016-Jul-21 10:33N 37°48' W 122°19'0 0.0
2016-Jul-21 09:33N 37°48' W 122°19'0 0.0
2016-Jul-21 08:33N 37°48' W 122°19'0 0.0
2016-Jul-21 07:33N 37°48' W 122°19'0 0.0
2016-Jul-21 06:33N 37°48' W 122°19'0 0.0
2016-Jul-21 05:33N 37°48' W 122°19'0 0.0
2016-Jul-21 04:33N 37°48' W 122°19'5 5.3
2016-Jul-21 03:33N 37°52' W 122°23'3 2.8
2016-Jul-21 02:33N 37°54' W 122°22'0 0.0
2016-Jul-21 01:31N 37°54' W 122°22'1 0.6
2016-Jul-21 00:33N 37°55' W 122°22'1 0.6
2016-Jul-20 23:33N 37°54' W 122°22'0 0.0
2016-Jul-20 22:33N 37°54' W 122°22'3 3.5
2016-Jul-20 21:33N 37°51' W 122°23'4 4.3
2016-Jul-20 20:33N 37°48' W 122°19'0 0.0
2016-Jul-20 19:33N 37°48' W 122°19'0 0.0
2016-Jul-20 18:33N 37°48' W 122°19'0 0.0
2016-Jul-20 17:34N 37°48' W 122°19'0 0.3
2016-Jul-20 16:33N 37°48' W 122°19'6 6.0
2016-Jul-20 15:33N 37°53' W 122°24'3 2.9
2016-Jul-20 14:33N 37°55' W 122°22'1 1.0
2016-Jul-20 13:33N 37°54' W 122°22'4 3.8
2016-Jul-20 12:33N 37°51' W 122°24'4 4.3
2016-Jul-20 11:31N 37°46' W 122°22'0 0.0
2016-Jul-20 10:28N 37°46' W 122°22'0 0.0
2016-Jul-20 09:31N 37°46' W 122°22'0 0.1
2016-Jul-20 08:31N 37°46' W 122°22'0 0.2
2016-Jul-20 07:31N 37°46' W 122°21'0 0.0
2016-Jul-20 06:31N 37°46' W 122°21'0 0.0
2016-Jul-20 05:31N 37°46' W 122°21'0 0.2
2016-Jul-20 04:33N 37°46' W 122°21'3 3.1
2016-Jul-20 03:33N 37°49' W 122°22'5 5.1
2016-Jul-20 02:33N 37°54' W 122°22'1 1.3
2016-Jul-20 01:33N 37°54' W 122°24'4 4.0
2016-Jul-20 00:33N 37°51' W 122°23'4 4.4
2016-Jul-19 23:33N 37°48' W 122°19'0 0.0
2016-Jul-19 22:33N 37°48' W 122°19'0 0.0
2016-Jul-19 21:34N 37°48' W 122°19'0 0.0
2016-Jul-19 20:33N 37°48' W 122°19'0 0.0
2016-Jul-19 19:34N 37°48' W 122°19'0 0.0
2016-Jul-19 18:33N 37°48' W 122°19'0 0.0
2016-Jul-19 17:33N 37°48' W 122°19'0 0.0
2016-Jul-19 16:33N 37°48' W 122°19'0 0.0
2016-Jul-19 15:34N 37°48' W 122°19'6 5.7
2016-Jul-19 14:33N 37°52' W 122°24'1 0.1
2016-Jul-19 04:33N 37°51' W 122°23'5 4.9
2016-Jul-19 03:33N 37°48' W 122°18'0 0.0
2016-Jul-19 02:33N 37°48' W 122°18'0 0.0
2016-Jul-19 01:33N 37°48' W 122°18'0 0.0
2016-Jul-19 00:33N 37°48' W 122°18'1 1.1
2016-Jul-18 23:33N 37°48' W 122°19'2 2.3
2016-Jul-18 22:33N 37°49' W 122°22'0 0.0
2016-Jul-18 21:26N 37°49' W 122°22'0 0.0
2016-Jul-18 20:34N 37°49' W 122°22'0 0.0
2016-Jul-18 19:33N 37°49' W 122°22'1 1.0
2016-Jul-18 18:33N 37°48' W 122°21'3 3.5
2016-Jul-18 17:33N 37°45' W 122°23'1 1.4
2016-Jul-18 16:34N 37°46' W 122°22'0 0.0
2016-Jul-18 15:33N 37°46' W 122°22'0 0.0
2016-Jul-18 14:33N 37°46' W 122°22'0 0.2
2016-Jul-18 13:33N 37°46' W 122°22'0 0.1
2016-Jul-18 12:33N 37°46' W 122°22'0 0.0
2016-Jul-18 11:33N 37°46' W 122°22'1 1.4
2016-Jul-18 10:34N 37°45' W 122°22'0 0.3
2016-Jul-18 09:34N 37°45' W 122°23'8 8.4
2016-Jul-18 08:33N 37°53' W 122°24'1 0.1
2016-Jul-18 03:33N 37°53' W 122°24'5 4.6
2016-Jul-18 02:33N 37°49' W 122°22'5 4.7
2016-Jul-18 01:33N 37°53' W 122°24'1 0.4
2016-Jul-17 22:28N 37°54' W 122°23'1 0.1
2016-Jul-17 09:23N 37°54' W 122°22'0 0.0
2016-Jul-15 14:23N 37°54' W 122°22'0 0.0
2016-Jul-15 12:29N 37°54' W 122°22'1 0.7
2016-Jul-15 11:24N 37°55' W 122°22'1 1.0
2016-Jul-15 10:33N 37°54' W 122°22'1 0.7
2016-Jul-15 09:29N 37°55' W 122°22'1 0.1
2016-Jul-15 03:33N 37°54' W 122°22'0 0.1
2016-Jul-15 00:12N 37°54' W 122°22'0 0.2
2016-Jul-14 23:33N 37°54' W 122°22'0 0.3
2016-Jul-14 22:33N 37°54' W 122°22'3 2.8
2016-Jul-14 21:33N 37°53' W 122°25'6 6.5
2016-Jul-14 20:34N 37°48' W 122°31'1 0.7
2016-Jul-14 19:33N 37°49' W 122°31'5 5.2
2016-Jul-14 18:33N 37°53' W 122°26'3 1.5
2016-Jul-14 16:16N 37°54' W 122°22'0 0.0
2016-Jul-14 15:22N 37°54' W 122°22'0 0.0
2016-Jul-14 14:28N 37°54' W 122°22'0 0.0
2016-Jul-14 13:28N 37°54' W 122°22'0 0.0
2016-Jul-14 12:28N 37°54' W 122°22'0 0.0
2016-Jul-14 11:16N 37°54' W 122°22'0 0.0
2016-Jul-14 10:28N 37°54' W 122°22'0 0.0
2016-Jul-14 08:16N 37°54' W 122°22'0 0.0
2016-Jul-14 07:28N 37°54' W 122°22'0 0.0
2016-Jul-14 06:28N 37°54' W 122°22'0 0.0
2016-Jul-14 05:28N 37°54' W 122°22'0 0.0
2016-Jul-14 04:22N 37°54' W 122°22'0 0.0
2016-Jul-14 03:22N 37°54' W 122°22'1 0.7
2016-Jul-14 02:15N 37°55' W 122°22'2 3.5
2016-Jul-14 01:32N 37°55' W 122°25'2 1.6
2016-Jul-14 00:09N 37°54' W 122°22'3 5.1
2016-Jul-13 23:33N 37°51' W 122°23'5 5.3
2016-Jul-13 22:33N 37°48' W 122°18'0 0.0
2016-Jul-13 21:34N 37°48' W 122°18'0 0.0
2016-Jul-13 20:33N 37°48' W 122°18'0 0.0
2016-Jul-13 19:33N 37°48' W 122°18'0 0.0
2016-Jul-13 18:33N 37°48' W 122°18'2 2.3
2016-Jul-13 17:33N 37°48' W 122°21'3 3.5
2016-Jul-13 16:33N 37°51' W 122°23'3 1.6
2016-Jul-13 14:33N 37°54' W 122°22'  
Track history (hours):
 
Tides and Currents Weather Stations Pressure Air Temp Water Temp Dewpoint Dewpoint Depression Visibility Wind Speed Wind Dir Waves Ship Positions

Point Vicente

Owner: Foss Maritime Company, Seattle, WA. More information available from US FCC via Universal Licensing System and Coast Guard Vessel Documentation Center.

Last reported at 2016-Jul-23 14:33 UTC. Time now 2016-Jul-23 15:02 UTC.
Position N 37°54' W 122°22'.

Length 32 m; draft 4.3 m.

Type: Tug. MMSI: 366982330.

Date/timePositionNaut miles runAvg speedWind from/ knotsBaromVisibWave heightAir tempDewpointWater temp
2016-Jul-23 14:33N 37°54' W 122°22'0 0.0
2016-Jul-23 13:33N 37°54' W 122°22'0 0.0
2016-Jul-23 12:33N 37°54' W 122°22'0 0.0
2016-Jul-23 11:33N 37°54' W 122°22'0 0.0
2016-Jul-23 10:33N 37°54' W 122°22'0 0.0
2016-Jul-23 09:33N 37°54' W 122°22'0 0.0
2016-Jul-23 08:33N 37°54' W 122°22'0 0.0
2016-Jul-23 07:33N 37°54' W 122°22'0 0.0
2016-Jul-23 06:33N 37°54' W 122°22'0 0.0
2016-Jul-23 04:33N 37°54' W 122°22'0 0.0
2016-Jul-23 03:33N 37°54' W 122°22'0 0.0
2016-Jul-23 02:33N 37°54' W 122°22'0 0.0
2016-Jul-23 01:33N 37°54' W 122°22'0 0.0
2016-Jul-23 00:33N 37°54' W 122°22'0 0.0
2016-Jul-22 23:33N 37°54' W 122°22'0 0.0
2016-Jul-22 22:33N 37°54' W 122°22'0 0.0
2016-Jul-22 21:33N 37°54' W 122°22'0 0.0
2016-Jul-22 20:33N 37°54' W 122°22'0 0.0
2016-Jul-22 19:33N 37°54' W 122°22'0 0.0
2016-Jul-22 18:33N 37°54' W 122°22'0 0.0
2016-Jul-22 17:33N 37°54' W 122°22'0 0.0
2016-Jul-22 16:33N 37°54' W 122°22'0 0.0
2016-Jul-22 15:33N 37°54' W 122°22'0 0.0
2016-Jul-22 14:33N 37°54' W 122°22'0 0.0
2016-Jul-22 13:33N 37°54' W 122°22'0 0.0
2016-Jul-22 12:33N 37°54' W 122°22'0 0.0
2016-Jul-22 11:33N 37°54' W 122°22'0 0.0
2016-Jul-22 10:33N 37°54' W 122°22'0 0.0
2016-Jul-22 09:33N 37°54' W 122°22'0 0.0
2016-Jul-22 08:33N 37°54' W 122°22'0 0.0
2016-Jul-22 07:33N 37°54' W 122°22'0 0.0
2016-Jul-22 05:34N 37°54' W 122°22'0 0.0
2016-Jul-22 04:33N 37°54' W 122°22'0 0.0
2016-Jul-22 03:33N 37°54' W 122°22'0 0.0
2016-Jul-22 02:33N 37°54' W 122°22'0 0.0
2016-Jul-22 01:33N 37°54' W 122°22'0 0.0
2016-Jul-22 00:33N 37°54' W 122°22'0 0.0
2016-Jul-21 23:33N 37°54' W 122°22'0 0.0
2016-Jul-21 22:33N 37°54' W 122°22'0 0.0
2016-Jul-21 21:33N 37°54' W 122°22'0 0.0
2016-Jul-21 20:33N 37°54' W 122°22'2 1.6
2016-Jul-21 19:33N 37°54' W 122°24'7 6.9
2016-Jul-21 18:33N 37°48' W 122°19'0 0.4
2016-Jul-21 17:33N 37°48' W 122°19'0 0.0
2016-Jul-21 16:33N 37°48' W 122°19'0 0.0
2016-Jul-21 15:33N 37°48' W 122°19'0 0.0
2016-Jul-21 14:34N 37°48' W 122°19'0 0.0
2016-Jul-21 13:33N 37°48' W 122°19'0 0.0
2016-Jul-21 12:33N 37°48' W 122°19'0 0.0
2016-Jul-21 11:34N 37°48' W 122°19'0 0.0
2016-Jul-21 10:33N 37°48' W 122°19'0 0.0
2016-Jul-21 09:33N 37°48' W 122°19'0 0.0
2016-Jul-21 08:33N 37°48' W 122°19'0 0.0
2016-Jul-21 07:33N 37°48' W 122°19'0 0.0
2016-Jul-21 06:33N 37°48' W 122°19'0 0.0
2016-Jul-21 05:33N 37°48' W 122°19'0 0.0
2016-Jul-21 04:33N 37°48' W 122°19'5 5.3
2016-Jul-21 03:33N 37°52' W 122°23'3 2.8
2016-Jul-21 02:33N 37°54' W 122°22'0 0.0
2016-Jul-21 01:31N 37°54' W 122°22'1 0.6
2016-Jul-21 00:33N 37°55' W 122°22'1 0.6
2016-Jul-20 23:33N 37°54' W 122°22'0 0.0
2016-Jul-20 22:33N 37°54' W 122°22'3 3.5
2016-Jul-20 21:33N 37°51' W 122°23'4 4.3
2016-Jul-20 20:33N 37°48' W 122°19'0 0.0
2016-Jul-20 19:33N 37°48' W 122°19'0 0.0
2016-Jul-20 18:33N 37°48' W 122°19'0 0.0
2016-Jul-20 17:34N 37°48' W 122°19'0 0.3
2016-Jul-20 16:33N 37°48' W 122°19'6 6.0
2016-Jul-20 15:33N 37°53' W 122°24'3 2.9
2016-Jul-20 14:33N 37°55' W 122°22'1 1.0
2016-Jul-20 13:33N 37°54' W 122°22'4 3.8
2016-Jul-20 12:33N 37°51' W 122°24'4 4.3
2016-Jul-20 11:31N 37°46' W 122°22'0 0.0
2016-Jul-20 10:28N 37°46' W 122°22'0 0.0
2016-Jul-20 09:31N 37°46' W 122°22'0 0.1
2016-Jul-20 08:31N 37°46' W 122°22'0 0.2
2016-Jul-20 07:31N 37°46' W 122°21'0 0.0
2016-Jul-20 06:31N 37°46' W 122°21'0 0.0
2016-Jul-20 05:31N 37°46' W 122°21'0 0.2
2016-Jul-20 04:33N 37°46' W 122°21'3 3.1
2016-Jul-20 03:33N 37°49' W 122°22'5 5.1
2016-Jul-20 02:33N 37°54' W 122°22'1 1.3
2016-Jul-20 01:33N 37°54' W 122°24'4 4.0
2016-Jul-20 00:33N 37°51' W 122°23'4 4.4
2016-Jul-19 23:33N 37°48' W 122°19'0 0.0
2016-Jul-19 22:33N 37°48' W 122°19'0 0.0
2016-Jul-19 21:34N 37°48' W 122°19'0 0.0
2016-Jul-19 20:33N 37°48' W 122°19'0 0.0
2016-Jul-19 19:34N 37°48' W 122°19'0 0.0
2016-Jul-19 18:33N 37°48' W 122°19'0 0.0
2016-Jul-19 17:33N 37°48' W 122°19'0 0.0
2016-Jul-19 16:33N 37°48' W 122°19'0 0.0
2016-Jul-19 15:34N 37°48' W 122°19'6 5.7
2016-Jul-19 14:33N 37°52' W 122°24'1 0.1
2016-Jul-19 04:33N 37°51' W 122°23'5 4.9
2016-Jul-19 03:33N 37°48' W 122°18'0 0.0
2016-Jul-19 02:33N 37°48' W 122°18'0 0.0
2016-Jul-19 01:33N 37°48' W 122°18'0 0.0
2016-Jul-19 00:33N 37°48' W 122°18'1 1.1
2016-Jul-18 23:33N 37°48' W 122°19'2 2.3
2016-Jul-18 22:33N 37°49' W 122°22'0 0.0
2016-Jul-18 21:26N 37°49' W 122°22'0 0.0
2016-Jul-18 20:34N 37°49' W 122°22'0 0.0
2016-Jul-18 19:33N 37°49' W 122°22'1 1.0
2016-Jul-18 18:33N 37°48' W 122°21'3 3.5
2016-Jul-18 17:33N 37°45' W 122°23'1 1.4
2016-Jul-18 16:34N 37°46' W 122°22'0 0.0
2016-Jul-18 15:33N 37°46' W 122°22'0 0.0
2016-Jul-18 14:33N 37°46' W 122°22'0 0.2
2016-Jul-18 13:33N 37°46' W 122°22'0 0.1
2016-Jul-18 12:33N 37°46' W 122°22'0 0.0
2016-Jul-18 11:33N 37°46' W 122°22'1 1.4
2016-Jul-18 10:34N 37°45' W 122°22'0 0.3
2016-Jul-18 09:34N 37°45' W 122°23'8 8.4
2016-Jul-18 08:33N 37°53' W 122°24'1 0.1
2016-Jul-18 03:33N 37°53' W 122°24'5 4.6
2016-Jul-18 02:33N 37°49' W 122°22'5 4.7
2016-Jul-18 01:33N 37°53' W 122°24'1 0.4
2016-Jul-17 22:28N 37°54' W 122°23'1 0.1
2016-Jul-17 09:23N 37°54' W 122°22'0 0.0
2016-Jul-15 14:23N 37°54' W 122°22'0 0.0
2016-Jul-15 12:29N 37°54' W 122°22'1 0.7
2016-Jul-15 11:24N 37°55' W 122°22'1 1.0
2016-Jul-15 10:33N 37°54' W 122°22'1 0.7
2016-Jul-15 09:29N 37°55' W 122°22'1 0.1
2016-Jul-15 03:33N 37°54' W 122°22'0 0.1
2016-Jul-15 00:12N 37°54' W 122°22'0 0.2
2016-Jul-14 23:33N 37°54' W 122°22'0 0.3
2016-Jul-14 22:33N 37°54' W 122°22'3 2.8
2016-Jul-14 21:33N 37°53' W 122°25'6 6.5
2016-Jul-14 20:34N 37°48' W 122°31'1 0.7
2016-Jul-14 19:33N 37°49' W 122°31'5 5.2
2016-Jul-14 18:33N 37°53' W 122°26'3 1.5
2016-Jul-14 16:16N 37°54' W 122°22'0 0.0
2016-Jul-14 15:22N 37°54' W 122°22'0 0.0
2016-Jul-14 14:28N 37°54' W 122°22'0 0.0
2016-Jul-14 13:28N 37°54' W 122°22'0 0.0
2016-Jul-14 12:28N 37°54' W 122°22'0 0.0
2016-Jul-14 11:16N 37°54' W 122°22'0 0.0
2016-Jul-14 10:28N 37°54' W 122°22'0 0.0
2016-Jul-14 08:16N 37°54' W 122°22'0 0.0
2016-Jul-14 07:28N 37°54' W 122°22'0 0.0
2016-Jul-14 06:28N 37°54' W 122°22'0 0.0
2016-Jul-14 05:28N 37°54' W 122°22'0 0.0
2016-Jul-14 04:22N 37°54' W 122°22'0 0.0
2016-Jul-14 03:22N 37°54' W 122°22'1 0.7
2016-Jul-14 02:15N 37°55' W 122°22'2 3.5
2016-Jul-14 01:32N 37°55' W 122°25'2 1.6
2016-Jul-14 00:09N 37°54' W 122°22'3 5.1
2016-Jul-13 23:33N 37°51' W 122°23'5 5.3
2016-Jul-13 22:33N 37°48' W 122°18'0 0.0
2016-Jul-13 21:34N 37°48' W 122°18'0 0.0
2016-Jul-13 20:33N 37°48' W 122°18'0 0.0
2016-Jul-13 19:33N 37°48' W 122°18'0 0.0
2016-Jul-13 18:33N 37°48' W 122°18'2 2.3
2016-Jul-13 17:33N 37°48' W 122°21'3 3.5
2016-Jul-13 16:33N 37°51' W 122°23'3 1.6
2016-Jul-13 14:33N 37°54' W 122°22'  

Dump ship's entire track history